Drachtstercompagnie, Netherlands
Current Conditions -  °F | °C
As of 12:30 PM on Friday 31 Oct 2014 (Local Time) from EHLW Reporting Station
Haze Haze  
Wind Chill: 57°   Ceiling: 10000
Heat Index: 57°   Visibility: 6mi
Dew Point: 55°   Wind: 9mph
Humidity: 94%   Direction: 190°S
Pressure: 30.12"   Gusts: NA
Location:  53.13°N, 6.14°E
Report Text: EHLW 311130Z AUTO 19008KT 9000 BR OVC100 14/13 Q1020 BLU 19008KT CAVOK
Loading
Personal Weather Stations






























Interactive Weather Map
Tropical Storm Tracking
New forecast layout! Learn more

10-Day Weather Forecast

Advertisements
Track Severe Weather on mobile